Blacksburg, VA

3:44 PM EDT on October 22, 2017 (GMT -0400)
Virginia Tech

Weather History for KBCB - May, 2013

Change the Weather History Date:

Thursday, May 30, 2013

  Actual Average Record
Temperature  
Mean Temperature 69 °F 63 °F  
Max Temperature 84 °F 75 °F 90 °F (2011)
Min Temperature 53 °F 52 °F 39 °F (1964)
Degree Days  
Heating Degree Days 0 3  
Month to date heating degree days 204 199  
Since 1 July heating degree days 5345 5404  
Cooling Degree Days 4 2  
Month to date cooling degree days 28 22  
Year to date cooling degree days 28 25  
Growing Degree Days 22 (Base 50)    
Moisture  
Dew Point 62 °F    
Average Humidity 69    
Maximum Humidity 100    
Minimum Humidity 37    
Precipitation  
Precipitation 0.00 in 0.16 in 1.30 in (1971)
Month to date precipitation 5.83 4.18  
Year to date precipitation 21.87 17.19  
Snow  
Snow 0.00 in - - ()
Month to date snowfall 0.0  
Since 1 July snowfall 27.9  
Snow Depth 0.00 in    
Sea Level Pressure  
Sea Level Pressure 30.29 in    
Wind  
Wind Speed 3 mph (South)    
Max Wind Speed 12 mph    
Max Gust Speed -    
Visibility 9 miles    
Events      
T = Trace of Precipitation, MM = Missing Value Source: NWS Daily Summary

Daily Weather History Graph

Daily Weather History Graph

Search for Another Location

Airport or City:

Trip Planner

Search our weather history database for the weather conditions in past years. The results will help you decide how hot, cold, wet, or windy it might be!

Date:

Astronomy

May. 30, 2013 Rise Set
Actual Time 6:03 AM EDT 8:35 PM EDT
Civil Twilight 5:33 AM EDT 9:05 PM EDT
Nautical Twilight 4:55 AM EDT 9:43 PM EDT
Astronomical Twilight 4:14 AM EDT 10:24 PM EDT
Moon 12:39 AM EDT (5/30) 12:05 PM EDT (5/30)
Length of Visible Light 15h 32m
Length of Day
14h 31m
Waning Gibbous, 62% of the Moon is Illuminated
May 30
Waning Gibbous
May 31
Last Quarter
Jun 8
New
Jun 16
First Quarter
Jun 23
Full

Hourly Weather History & Observations

Time (EDT) Temp. Heat Index Dew Point Humidity Pressure Visibility Wind Dir Wind Speed Gust Speed Precip Events Conditions
12:15 AM 66.2 °F - 62.6 °F 88% 30.28 in 10.0 mi Calm Calm - N/A   Clear
12:35 AM 64.4 °F - 62.6 °F 94% 30.28 in 10.0 mi Calm Calm - N/A   Clear
12:55 AM 64.4 °F - 62.6 °F 94% 30.28 in 10.0 mi Calm Calm - N/A   Clear
1:15 AM 62.6 °F - 62.6 °F 100% 30.28 in 10.0 mi Calm Calm - N/A   Clear
1:35 AM 62.6 °F - 62.6 °F 100% 30.28 in 10.0 mi Calm Calm - N/A   Clear
1:55 AM 60.8 °F - 60.8 °F 100% 30.28 in 7.0 mi Calm Calm - N/A   Clear
2:15 AM 60.8 °F - 60.8 °F 100% 30.28 in 10.0 mi Calm Calm - N/A   Clear
2:35 AM 60.8 °F - 60.8 °F 100% 30.28 in 10.0 mi Calm Calm - N/A   Clear
2:55 AM 60.8 °F - 60.8 °F 100% 30.27 in 10.0 mi Calm Calm - N/A   Clear
3:15 AM 59.0 °F - 59.0 °F 100% 30.28 in 10.0 mi Calm Calm - N/A   Clear
3:35 AM 59.0 °F - 59.0 °F 100% 30.28 in 7.0 mi Calm Calm - N/A   Clear
3:55 AM 57.2 °F - 57.2 °F 100% 30.28 in 7.0 mi Calm Calm - N/A   Clear
4:15 AM 57.2 °F - 57.2 °F 100% 30.28 in 5.0 mi Calm Calm - N/A   Clear
4:35 AM 57.2 °F - 57.2 °F 100% 30.29 in 4.0 mi Calm Calm - N/A   Clear
4:55 AM 57.2 °F - 57.2 °F 100% 30.29 in 7.0 mi Calm Calm - N/A   Clear
5:15 AM 57.2 °F - 57.2 °F 100% 30.29 in 3.0 mi Calm Calm - N/A   Clear
5:35 AM 57.2 °F - 57.2 °F 100% 30.30 in 5.0 mi Calm Calm - N/A   Clear
5:55 AM 57.2 °F - 57.2 °F 100% 30.30 in 4.0 mi Calm Calm - N/A   Clear
6:15 AM 57.2 °F - 57.2 °F 100% 30.31 in 2.5 mi Calm Calm - N/A   Clear
6:35 AM 57.2 °F - 57.2 °F 100% 30.31 in 3.0 mi Calm Calm - N/A   Clear
6:55 AM 59.0 °F - 59.0 °F 100% 30.31 in 10.0 mi Calm Calm - N/A   Clear
7:15 AM 60.8 °F - 60.8 °F 100% 30.31 in 10.0 mi Calm Calm - N/A   Clear
7:35 AM 64.4 °F - 64.4 °F 100% 30.31 in 10.0 mi Calm Calm - N/A   Clear
7:55 AM 66.2 °F - 64.4 °F 94% 30.32 in 10.0 mi Calm Calm - N/A   Clear
8:15 AM 69.8 °F - 64.4 °F 83% 30.32 in 10.0 mi Calm Calm - N/A   Clear
8:35 AM 69.8 °F - 64.4 °F 83% 30.32 in 10.0 mi Calm Calm - N/A   Clear
8:55 AM 71.6 °F - 64.4 °F 78% 30.33 in 10.0 mi South 3.5 mph - N/A   Clear
9:15 AM 71.6 °F - 66.2 °F 83% 30.34 in 10.0 mi West 3.5 mph - N/A   Clear
9:35 AM 73.4 °F - 66.2 °F 78% 30.33 in 10.0 mi NW 4.6 mph - N/A   Clear
9:55 AM 73.4 °F - 66.2 °F 78% 30.34 in 10.0 mi Calm Calm - N/A   Clear
10:15 AM 75.2 °F - 66.2 °F 73% 30.34 in 10.0 mi West 3.5 mph - N/A   Clear
10:35 AM 75.2 °F - 66.2 °F 73% 30.33 in 10.0 mi Calm Calm - N/A   Clear
10:55 AM 77.0 °F - 66.2 °F 69% 30.33 in 10.0 mi Calm Calm - N/A   Clear
11:15 AM 78.8 °F - 64.4 °F 61% 30.33 in 10.0 mi SSW 5.8 mph - N/A   Clear
11:35 AM 80.6 °F 82.3 °F 64.4 °F 58% 30.33 in 10.0 mi South 3.5 mph - N/A   Clear
11:55 AM 80.6 °F 82.3 °F 64.4 °F 58% 30.32 in 10.0 mi Calm Calm - N/A   Clear
12:15 PM 82.4 °F 83.9 °F 64.4 °F 54% 30.32 in 10.0 mi SSW 4.6 mph - N/A   Clear
12:35 PM 82.4 °F 83.4 °F 62.6 °F 51% 30.31 in 10.0 mi SW 4.6 mph - N/A   Clear
12:55 PM 82.4 °F 83.4 °F 62.6 °F 51% 30.30 in 10.0 mi SSW 4.6 mph - N/A   Clear
1:15 PM 84.2 °F 85.0 °F 62.6 °F 48% 30.30 in 10.0 mi SW 4.6 mph - N/A   Clear
1:35 PM 84.2 °F 84.4 °F 60.8 °F 45% 30.29 in 10.0 mi Calm Calm - N/A   Clear
1:55 PM 84.2 °F 83.5 °F 57.2 °F 40% 30.29 in 10.0 mi Calm Calm - N/A   Clear
2:15 PM 84.2 °F 84.4 °F 60.8 °F 45% 30.28 in 10.0 mi SW 5.8 mph - N/A   Clear
2:35 PM 86.0 °F 86.1 °F 60.8 °F 43% 30.28 in 10.0 mi South 3.5 mph - N/A   Clear
2:55 PM 86.0 °F 84.9 °F 57.2 °F 37% 30.27 in 10.0 mi SSE 9.2 mph - N/A   Clear
3:15 PM 87.8 °F 86.5 °F 57.2 °F 35% 30.27 in 10.0 mi South 5.8 mph - N/A   Clear
3:35 PM 86.0 °F 85.4 °F 59.0 °F 40% 30.26 in 10.0 mi SSE 3.5 mph - N/A   Clear
3:55 PM 86.0 °F 84.9 °F 57.2 °F 37% 30.26 in 10.0 mi SSW 5.8 mph - N/A   Clear
4:15 PM 86.0 °F 86.1 °F 60.8 °F 43% 30.25 in 10.0 mi South 5.8 mph - N/A   Clear
4:35 PM 87.8 °F 88.5 °F 62.6 °F 43% 30.25 in 10.0 mi South 4.6 mph - N/A   Clear
4:55 PM 84.2 °F 84.4 °F 60.8 °F 45% 30.25 in 10.0 mi SSW 6.9 mph - N/A   Clear
5:15 PM 84.2 °F 85.0 °F 62.6 °F 48% 30.25 in 10.0 mi SW 5.8 mph - N/A   Clear
5:35 PM 84.2 °F 85.0 °F 62.6 °F 48% 30.25 in 10.0 mi SSW 5.8 mph - N/A   Clear
5:55 PM 82.4 °F 83.9 °F 64.4 °F 54% 30.25 in 10.0 mi SSW 8.1 mph - N/A   Clear
6:15 PM 80.6 °F 82.3 °F 64.4 °F 58% 30.25 in 10.0 mi SSW 4.6 mph - N/A   Clear
6:35 PM 80.6 °F 82.7 °F 66.2 °F 61% 30.24 in 10.0 mi SSE 6.9 mph - N/A   Clear
6:55 PM 80.6 °F 82.7 °F 66.2 °F 61% 30.25 in 10.0 mi South 11.5 mph - N/A   Clear
7:15 PM 80.6 °F 82.7 °F 66.2 °F 61% 30.25 in 10.0 mi SSE 8.1 mph - N/A   Clear
7:35 PM 78.8 °F - 66.2 °F 65% 30.25 in 10.0 mi SSE 8.1 mph - N/A   Clear
7:55 PM 78.8 °F - 64.4 °F 61% 30.25 in 10.0 mi SSE 6.9 mph - N/A   Clear
8:15 PM 77.0 °F - 64.4 °F 65% 30.25 in 10.0 mi SSE 8.1 mph - N/A   Clear
8:35 PM 75.2 °F - 64.4 °F 69% 30.25 in 10.0 mi SSE 5.8 mph - N/A   Clear
8:55 PM 75.2 °F - 64.4 °F 69% 30.25 in 10.0 mi SSE 4.6 mph - N/A   Clear
9:15 PM 73.4 °F - 64.4 °F 73% 30.26 in 10.0 mi SSE 5.8 mph - N/A   Clear
9:35 PM 73.4 °F - 64.4 °F 73% 30.26 in 10.0 mi Calm Calm - N/A   Clear
9:55 PM 69.8 °F - 64.4 °F 83% 30.27 in 10.0 mi Calm Calm - N/A   Clear
10:15 PM 66.2 °F - 64.4 °F 94% 30.28 in 10.0 mi Calm Calm - N/A   Clear
10:35 PM 66.2 °F - 64.4 °F 94% 30.28 in 7.0 mi Calm Calm - N/A   Clear
10:55 PM 64.4 °F - 64.4 °F 100% 30.28 in 10.0 mi Calm Calm - N/A   Clear
11:15 PM 64.4 °F - 64.4 °F 100% 30.28 in 10.0 mi Calm Calm - N/A   Clear
11:35 PM 62.6 °F - 62.6 °F 100% 30.29 in 10.0 mi Calm Calm - N/A   Clear
11:55 PM 62.6 °F - 62.6 °F 100% 30.29 in 10.0 mi Calm Calm - N/A   Clear